Big Bear Station Historical Data
Daily Summary for March 19, 2019 Units:  Metric    English   Both
Next Day »
Daily Weekly Monthly Yearly Custom
  High: Low: Average:
Temperature: 13.8 °C -2.2 °C 4.3 °C
Dew Point: 5.4 °C -4 °C -0.1 °C
Humidity: 99% 41% 77%
Wind Speed: 9.3km/h 0km/h 1.8km/h
Wind Gust: -1607.7km/h - -
Wind- - SSW
Pressure: 796.4 hPa 792.3 hPa -
Precipitation: 0 mm    
Historical Graphs
 
 
Tabular Data for March 19, 2019
Time Temperature Dew Point Pressure Wind Wind Speed Wind Gust Humidity Rainfall Rate (Hourly)
00:10 0.1 °C -1.1 °C 796.4 hPa Calm   -1607.7 km/h 92% 0 mm
00:26 -0.1 °C -1.1 °C 796.4 hPa Calm   -1607.7 km/h 93% 0 mm
00:41 -0.1 °C -1.1 °C 796 hPa Calm   -1607.7 km/h 93% 0 mm
00:56 -0.3 °C -1.1 °C 796 hPa Calm   -1607.7 km/h 94% 0 mm
01:11 -0.5 °C -1.3 °C 796 hPa Calm   -1607.7 km/h 94% 0 mm
01:26 -0.6 °C -1.4 °C 796 hPa Calm   -1607.7 km/h 94% 0 mm
01:42 -0.9 °C -1.7 °C 795.7 hPa Calm   -1607.7 km/h 94% 0 mm
01:57 -0.8 °C -1.5 °C 795.7 hPa Calm   -1607.7 km/h 95% 0 mm
02:13 -1 °C -1.7 °C 795.7 hPa Calm   -1607.7 km/h 95% 0 mm
02:28 -1.2 °C -1.9 °C 795.7 hPa Calm   -1607.7 km/h 95% 0 mm
02:43 -1.2 °C -1.8 °C 795.7 hPa Calm   -1607.7 km/h 96% 0 mm
02:58 -1.2 °C -1.8 °C 795.7 hPa Calm   -1607.7 km/h 96% 0 mm
03:13 -1.4 °C -1.9 °C 795.4 hPa Calm   -1607.7 km/h 96% 0 mm
03:29 -1.4 °C -1.8 °C 795.4 hPa Calm   -1607.7 km/h 97% 0 mm
03:44 -1.4 °C -1.8 °C 795.4 hPa Calm   -1607.7 km/h 97% 0 mm
03:59 -1.6 °C -2 °C 795 hPa Calm   -1607.7 km/h 97% 0 mm
04:14 -1.8 °C -2.2 °C 795.4 hPa Calm   -1607.7 km/h 97% 0 mm
04:29 -1.6 °C -1.9 °C 795 hPa Calm   -1607.7 km/h 98% 0 mm
04:45 -1.7 °C -2 °C 795 hPa Calm   -1607.7 km/h 98% 0 mm
05:00 -1.8 °C -2.1 °C 795 hPa Calm   -1607.7 km/h 98% 0 mm
05:15 -2 °C -2.3 °C 795 hPa Calm   -1607.7 km/h 98% 0 mm
05:30 -1.9 °C -2.2 °C 795 hPa Calm   -1607.7 km/h 98% 0 mm
05:46 -1.9 °C -2.2 °C 795 hPa Calm   -1607.7 km/h 98% 0 mm
06:01 -2.2 °C -2.5 °C 795 hPa Calm   -1607.7 km/h 98% 0 mm
06:17 -2.2 °C -2.5 °C 795 hPa Calm   -1607.7 km/h 98% 0 mm
06:32 -2.1 °C -2.4 °C 795 hPa Calm   -1607.7 km/h 98% 0 mm
06:47 -2.1 °C -2.4 °C 795 hPa Calm   -1607.7 km/h 98% 0 mm
07:02 -2.2 °C -2.5 °C 795 hPa Calm   -1607.7 km/h 98% 0 mm
07:17 -1.9 °C -2 °C 795.4 hPa Calm   -1607.7 km/h 99% 0 mm
07:33 -1.9 °C -2 °C 795.4 hPa Calm   -1607.7 km/h 99% 0 mm
07:48 -1.5 °C -1.6 °C 795.4 hPa Calm   -1607.7 km/h 99% 0 mm
08:03 -1.1 °C -1.2 °C 795.4 hPa Calm   -1607.7 km/h 99% 0 mm
08:18 0 °C -0.1 °C 795.7 hPa Calm   -1607.7 km/h 99% 0 mm
08:34 0.7 °C 0.3 °C 795.4 hPa Calm   -1607.7 km/h 97% 0 mm
08:49 1.1 °C 0.7 °C 795.7 hPa Calm   -1607.7 km/h 97% 0 mm
09:04 1.7 °C 1.3 °C 795.4 hPa Calm   -1607.7 km/h 97% 0 mm
09:20 2.2 °C 1.7 °C 795.4 hPa Calm   -1607.7 km/h 96% 0 mm
09:35 3.3 °C 1.6 °C 795.7 hPa Calm   -1607.7 km/h 89% 0 mm
09:50 6.4 °C -1.1 °C 795.4 hPa South 1.8 km/h -1607.7 km/h 59% 0 mm
10:05 7.3 °C -1.2 °C 795.4 hPa Calm   -1607.7 km/h 55% 0 mm
10:21 8.7 °C -2.6 °C 795.4 hPa Calm   -1607.7 km/h 45% 0 mm
10:36 9.3 °C -1.8 °C 795.4 hPa Calm   -1607.7 km/h 46% 0 mm
10:52 10.1 °C -2.6 °C 795.4 hPa SSW 2.7 km/h -1607.7 km/h 41% 0 mm
11:07 11.1 °C -0.4 °C 795.4 hPa Calm   -1607.7 km/h 45% 0 mm
11:22 11.5 °C -1.3 °C 795.4 hPa Calm   -1607.7 km/h 41% 0 mm
11:37 13.1 °C 0.5 °C 795 hPa Calm   -1607.7 km/h 42% 0 mm
11:52 12.5 °C 0.3 °C 795 hPa ESE 3.5 km/h -1607.7 km/h 43% 0 mm
12:07 12.9 °C 0.3 °C 795 hPa SSW 4.3 km/h -1607.7 km/h 42% 0 mm
12:23 13.7 °C 1.3 °C 795 hPa West 7.6 km/h -1607.7 km/h 43% 0 mm
12:38 13.8 °C 1.7 °C 795 hPa Calm   -1607.7 km/h 44% 0 mm
12:53 12.6 °C 1 °C 794.7 hPa Calm   -1607.7 km/h 45% 0 mm
13:09 12.7 °C 1.1 °C 794.7 hPa Calm   -1607.7 km/h 45% 0 mm
13:24 11.6 °C 0.9 °C 794.4 hPa NNW 1.8 km/h -1607.7 km/h 48% 0 mm
13:39 11.6 °C 1.3 °C 794.4 hPa South 1.8 km/h -1607.7 km/h 49% 0 mm
13:55 11.3 °C 1.8 °C 794 hPa SSW 4.3 km/h -1607.7 km/h 52% 0 mm
14:10 12.4 °C 1.9 °C 793.7 hPa Calm   -1607.7 km/h 49% 0 mm
14:25 11.7 °C 2.2 °C 793.7 hPa Calm   -1607.7 km/h 52% 0 mm
14:40 12.3 °C 1.6 °C 793.3 hPa Calm   -1607.7 km/h 48% 0 mm
14:55 11.9 °C 2.9 °C 793.3 hPa Calm   -1607.7 km/h 54% 0 mm
15:11 11.1 °C 4.8 °C 793.7 hPa Calm   -1607.7 km/h 65% 0 mm
15:26 10.6 °C 4.9 °C 793.3 hPa South 6.8 km/h -1607.7 km/h 68% 0 mm
15:41 9.8 °C 4.8 °C 793.3 hPa Calm   -1607.7 km/h 71% 0 mm
15:57 10.9 °C 5.4 °C 793.3 hPa Calm   -1607.7 km/h 69% 0 mm
16:12 10.5 °C 5.1 °C 793.3 hPa Calm   -1607.7 km/h 69% 0 mm
16:27 9.8 °C 4.9 °C 793.3 hPa East 2.7 km/h -1607.7 km/h 72% 0 mm
16:43 9.8 °C 4.9 °C 793 hPa Calm   -1607.7 km/h 72% 0 mm
16:58 10 °C 5.2 °C 793 hPa Calm   -1607.7 km/h 72% 0 mm
17:13 10.2 °C 5 °C 792.7 hPa Calm   -1607.7 km/h 70% 0 mm
17:28 9.7 °C 4.7 °C 792.7 hPa Calm   -1607.7 km/h 71% 0 mm
17:44 8.1 °C 4.5 °C 793 hPa SSW 4.3 km/h -1607.7 km/h 78% 0 mm
17:59 7.2 °C 4 °C 793 hPa Calm   -1607.7 km/h 80% 0 mm
18:14 6.4 °C 2.7 °C 793 hPa Calm   -1607.7 km/h 77% 0 mm
18:29 5.8 °C 1.5 °C 793 hPa Calm   -1607.7 km/h 74% 0 mm
18:45 5.3 °C 0.4 °C 793 hPa SSW 7.6 km/h -1607.7 km/h 71% 0 mm
19:00 5 °C -0.6 °C 793 hPa South 9.3 km/h -1607.7 km/h 67% 0 mm
19:15 4.8 °C -0.8 °C 793 hPa SSW 5.1 km/h -1607.7 km/h 67% 0 mm
19:30 4.4 °C -1.2 °C 793 hPa SSW 6.8 km/h -1607.7 km/h 67% 0 mm
19:46 4.1 °C -0.5 °C 793 hPa SW 4.3 km/h -1607.7 km/h 72% 0 mm
20:01 3.8 °C 0.4 °C 793 hPa ESE 7.6 km/h -1607.7 km/h 79% 0 mm
20:16 3.5 °C 0.4 °C 793 hPa SE 6.8 km/h -1607.7 km/h 80% 0 mm
20:32 3.2 °C 0.1 °C 793 hPa Calm   -1607.7 km/h 80% 0 mm
20:47 3.1 °C -0.7 °C 793 hPa SSW 4.3 km/h -1607.7 km/h 76% 0 mm
21:02 3.2 °C -1.3 °C 793 hPa South 7.6 km/h -1607.7 km/h 72% 0 mm
21:17 3.2 °C -3.6 °C 793 hPa WSW 5.1 km/h -1607.7 km/h 61% 0 mm
21:33 3.3 °C -4 °C 793 hPa South 6 km/h -1607.7 km/h 59% 0 mm
21:48 3.2 °C -2.7 °C 793 hPa SW 1.8 km/h -1607.7 km/h 65% 0 mm
22:04 2.9 °C -1.7 °C 792.7 hPa South 2.7 km/h -1607.7 km/h 72% 0 mm
22:19 2.7 °C -0.6 °C 793 hPa West 4.3 km/h -1607.7 km/h 79% 0 mm
22:34 2.3 °C -0.2 °C 792.7 hPa SSE 6 km/h -1607.7 km/h 84% 0 mm
22:49 2 °C -0.4 °C 792.3 hPa South 6.8 km/h -1607.7 km/h 84% 0 mm
23:05 1.8 °C -0.5 °C 792.7 hPa SSW 8.5 km/h -1607.7 km/h 85% 0 mm
23:20 1.5 °C -1.9 °C 792.3 hPa SW 6 km/h -1607.7 km/h 78% 0 mm
23:35 1.3 °C -1.3 °C 792.3 hPa WSW 6.8 km/h -1607.7 km/h 83% 0 mm
23:50 1.2 °C -1.5 °C 792.3 hPa ESE 6 km/h -1607.7 km/h 82% 0 mm
Big Bear CA Weather